createdAt,value
2022-12-09T00:00:33.921Z,69.20
2022-12-09T00:02:35.785Z,69.10
2022-12-09T00:04:37.786Z,69.10
2022-12-09T00:06:39.720Z,69.20
2022-12-09T00:08:41.669Z,69.20
2022-12-09T00:10:44.362Z,69.30
2022-12-09T00:12:46.367Z,69.30
2022-12-09T00:14:48.043Z,69.20
2022-12-09T00:16:49.903Z,69.00
2022-12-09T00:18:52.387Z,69.00
2022-12-09T00:20:54.470Z,69.00
2022-12-09T00:22:57.143Z,69.10
2022-12-09T00:24:58.877Z,69.10
2022-12-09T00:27:00.549Z,69.10
2022-12-09T00:29:02.277Z,69.00
2022-12-09T00:31:05.016Z,68.90
2022-12-09T00:33:07.038Z,68.70
2022-12-09T00:35:09.155Z,68.80
2022-12-09T00:37:11.010Z,68.80
2022-12-09T00:39:12.931Z,68.70
2022-12-09T00:41:15.533Z,68.70
2022-12-09T00:43:17.225Z,68.80
2022-12-09T00:45:18.924Z,68.90
2022-12-09T00:47:21.504Z,68.90
2022-12-09T00:49:23.306Z,69.00
2022-12-09T00:51:25.247Z,69.10
2022-12-09T00:53:28.020Z,69.00
2022-12-09T00:55:29.755Z,69.00
2022-12-09T00:57:31.664Z,68.80
2022-12-09T00:59:33.575Z,68.70
2022-12-09T01:01:35.393Z,68.50
2022-12-09T01:03:37.578Z,68.60
2022-12-09T01:05:39.470Z,68.70
2022-12-09T01:07:41.191Z,68.70
2022-12-09T01:09:43.248Z,68.80
2022-12-09T01:11:45.016Z,68.70
2022-12-09T01:13:47.882Z,68.60
2022-12-09T01:15:49.649Z,68.50
2022-12-09T01:17:52.261Z,68.30
2022-12-09T01:19:54.114Z,68.20
2022-12-09T01:21:56.172Z,68.40
2022-12-09T01:23:58.969Z,68.50
2022-12-09T01:26:02.448Z,68.50
2022-12-09T01:28:04.292Z,68.40
2022-12-09T01:30:08.774Z,68.20
2022-12-09T01:32:10.965Z,68.20
2022-12-09T01:34:14.385Z,68.10
2022-12-09T01:36:18.642Z,68.00
2022-12-09T01:38:20.403Z,68.10
2022-12-09T01:40:22.056Z,68.20
2022-12-09T01:42:24.810Z,68.40
2022-12-09T01:44:26.779Z,68.50
2022-12-09T01:46:28.952Z,68.50
2022-12-09T01:48:34.348Z,68.40
2022-12-09T01:50:36.727Z,68.40
2022-12-09T01:52:38.509Z,68.40
2022-12-09T01:54:41.458Z,68.50
2022-12-09T01:56:43.490Z,68.40
2022-12-09T01:58:46.182Z,68.30
2022-12-09T02:00:48.161Z,68.20
2022-12-09T02:02:50.761Z,68.10
2022-12-09T02:04:54.797Z,68.00
2022-12-09T02:06:58.523Z,67.80
2022-12-09T02:09:00.708Z,67.80
2022-12-09T02:11:05.607Z,67.90
2022-12-09T02:13:28.002Z,68.00
2022-12-09T02:15:52.238Z,68.10
2022-12-09T02:18:18.626Z,68.30
2022-12-09T02:20:26.615Z,68.20
2022-12-09T02:22:42.854Z,68.00
2022-12-09T02:24:56.219Z,68.10
2022-12-09T02:27:08.880Z,68.20
2022-12-09T02:29:11.354Z,68.10
2022-12-09T02:31:14.328Z,68.20
2022-12-09T02:33:25.921Z,69.10
2022-12-09T02:35:50.514Z,68.40
2022-12-09T02:38:13.322Z,68.40
2022-12-09T02:40:17.969Z,68.20
2022-12-09T02:42:21.646Z,68.00
2022-12-09T02:44:25.030Z,68.20
2022-12-09T02:46:28.619Z,68.40
2022-12-09T02:48:33.993Z,68.40
2022-12-09T02:50:37.511Z,68.50
2022-12-09T02:52:39.874Z,68.40
2022-12-09T02:54:43.604Z,68.30
2022-12-09T02:56:49.581Z,68.20
2022-12-09T02:58:51.918Z,68.10
2022-12-09T03:00:59.747Z,68.10
2022-12-09T03:03:03.042Z,68.30
2022-12-09T03:05:22.710Z,68.40
2022-12-09T03:07:32.147Z,68.50
2022-12-09T03:09:36.503Z,68.50
2022-12-09T03:11:39.195Z,68.50
2022-12-09T03:14:00.127Z,68.40
2022-12-09T03:16:06.990Z,68.50
2022-12-09T03:18:10.907Z,68.50
2022-12-09T03:20:14.836Z,68.50
2022-12-09T03:22:17.960Z,68.50
2022-12-09T03:24:21.694Z,68.50
2022-12-09T03:26:24.980Z,68.50
2022-12-09T03:28:30.569Z,68.60
2022-12-09T03:30:34.404Z,68.60
2022-12-09T03:32:37.920Z,68.60
2022-12-09T03:34:42.404Z,68.50
2022-12-09T03:36:46.693Z,68.60
2022-12-09T03:38:49.171Z,68.80
2022-12-09T03:40:53.928Z,68.90
2022-12-09T03:43:16.320Z,68.90
2022-12-09T03:45:19.665Z,68.70
2022-12-09T03:47:21.863Z,68.80
2022-12-09T03:49:23.656Z,69.00
2022-12-09T03:51:30.305Z,69.00
2022-12-09T03:53:48.799Z,69.00
2022-12-09T03:55:53.415Z,69.00
2022-12-09T03:57:57.594Z,69.00
2022-12-09T04:00:00.797Z,69.00
2022-12-09T04:02:04.022Z,69.20
2022-12-09T04:04:08.469Z,69.10
2022-12-09T04:06:10.203Z,69.10
2022-12-09T04:08:12.230Z,69.30
2022-12-09T04:10:13.929Z,69.40
2022-12-09T04:12:15.776Z,69.50
2022-12-09T04:14:17.771Z,69.50
2022-12-09T04:16:19.689Z,69.70
2022-12-09T04:18:21.702Z,69.90
2022-12-09T04:20:23.556Z,69.90
2022-12-09T04:22:25.226Z,69.90
2022-12-09T04:24:28.268Z,69.90
2022-12-09T04:26:29.925Z,69.80
2022-12-09T04:28:32.435Z,69.70
2022-12-09T04:30:34.292Z,69.40
2022-12-09T04:32:36.437Z,69.30
2022-12-09T04:34:38.383Z,69.30
2022-12-09T04:36:40.059Z,69.30
2022-12-09T04:38:42.396Z,69.40
2022-12-09T04:40:44.180Z,69.40
2022-12-09T04:42:46.785Z,69.40
2022-12-09T04:44:48.533Z,69.50
2022-12-09T04:46:50.241Z,69.40
2022-12-09T04:48:52.724Z,69.10
2022-12-09T04:50:54.868Z,69.00
2022-12-09T04:52:56.700Z,68.80
2022-12-09T04:54:58.598Z,68.70
2022-12-09T04:57:00.376Z,68.50
2022-12-09T04:59:02.439Z,68.50
2022-12-09T05:01:08.607Z,68.50
2022-12-09T05:03:10.834Z,68.50
2022-12-09T05:05:13.181Z,68.60
2022-12-09T05:07:15.443Z,68.40
2022-12-09T05:09:17.595Z,68.20
2022-12-09T05:11:19.960Z,68.30
2022-12-09T05:13:22.515Z,68.20
2022-12-09T05:15:24.475Z,68.50
2022-12-09T05:17:26.788Z,68.60
2022-12-09T05:19:28.753Z,68.70
2022-12-09T05:21:30.855Z,68.70
2022-12-09T05:23:33.457Z,68.60
2022-12-09T05:25:35.571Z,68.50
2022-12-09T05:27:37.691Z,68.20
2022-12-09T05:29:39.639Z,68.20
2022-12-09T05:31:41.435Z,68.30
2022-12-09T05:33:44.300Z,68.20
2022-12-09T05:35:52.669Z,68.40
2022-12-09T05:37:56.008Z,68.50
2022-12-09T05:39:57.702Z,68.60
2022-12-09T05:41:59.979Z,68.60
2022-12-09T05:44:01.777Z,68.70
2022-12-09T05:46:04.339Z,68.80
2022-12-09T05:48:06.790Z,68.80
2022-12-09T05:50:09.433Z,68.80
2022-12-09T05:52:14.527Z,68.80
2022-12-09T05:54:16.521Z,68.80
2022-12-09T05:56:19.591Z,68.70
2022-12-09T05:58:21.713Z,68.70
2022-12-09T06:00:23.858Z,68.70
2022-12-09T06:02:25.669Z,68.70
2022-12-09T06:04:28.060Z,68.70
2022-12-09T06:06:33.276Z,68.70
2022-12-09T06:08:35.568Z,68.80
2022-12-09T06:10:41.397Z,68.80
2022-12-09T06:12:43.609Z,68.80
2022-12-09T06:14:45.428Z,68.80
2022-12-09T06:16:47.436Z,68.70
2022-12-09T06:18:49.427Z,68.80
2022-12-09T06:20:51.312Z,68.80
2022-12-09T06:22:53.497Z,68.80
2022-12-09T06:24:57.326Z,68.80
2022-12-09T06:26:59.435Z,68.80
2022-12-09T06:29:01.323Z,68.70
2022-12-09T06:31:03.059Z,68.70
2022-12-09T06:33:22.908Z,68.60
2022-12-09T06:35:27.076Z,68.50
2022-12-09T06:37:29.837Z,68.50
2022-12-09T06:39:31.987Z,68.50
2022-12-09T06:41:33.958Z,68.50
2022-12-09T06:43:35.863Z,68.50
2022-12-09T06:45:38.359Z,68.50
2022-12-09T06:47:40.126Z,68.50
2022-12-09T06:49:42.272Z,68.50
2022-12-09T06:51:44.695Z,68.40
2022-12-09T06:53:46.849Z,68.50
2022-12-09T06:55:48.811Z,68.50
2022-12-09T06:57:51.029Z,68.40
2022-12-09T06:59:53.081Z,68.40
2022-12-09T07:01:55.257Z,68.50
2022-12-09T07:03:58.196Z,68.50
2022-12-09T07:06:01.106Z,68.50
2022-12-09T07:08:03.685Z,68.50
2022-12-09T07:10:06.939Z,68.50
2022-12-09T07:12:09.265Z,68.50
2022-12-09T07:14:11.460Z,68.50
2022-12-09T07:16:13.469Z,68.50
2022-12-09T07:18:15.390Z,68.40
2022-12-09T07:20:17.983Z,68.50
2022-12-09T07:22:19.831Z,68.50
2022-12-09T07:24:22.028Z,68.60
2022-12-09T07:26:24.890Z,68.60
2022-12-09T07:28:26.983Z,68.60
2022-12-09T07:30:28.821Z,68.50
2022-12-09T07:32:31.574Z,68.50
2022-12-09T07:34:33.528Z,68.50
2022-12-09T07:36:36.086Z,68.60
2022-12-09T07:38:38.254Z,68.60
2022-12-09T07:40:40.634Z,68.70
2022-12-09T07:42:42.952Z,68.50
2022-12-09T07:44:44.958Z,68.60
2022-12-09T07:46:47.131Z,68.60
2022-12-09T07:48:49.634Z,68.60
2022-12-09T07:50:52.048Z,68.60
2022-12-09T07:52:54.281Z,68.70
2022-12-09T07:54:59.368Z,68.60
2022-12-09T07:57:01.316Z,68.60
2022-12-09T07:59:05.839Z,68.50
2022-12-09T08:01:12.700Z,69.50
2022-12-09T08:03:14.714Z,68.70
2022-12-09T08:05:17.342Z,69.50
2022-12-09T08:07:20.253Z,68.70
2022-12-09T08:09:22.835Z,68.70
2022-12-09T08:11:26.375Z,68.90
2022-12-09T08:13:28.547Z,69.00
2022-12-09T08:15:30.388Z,69.10
2022-12-09T08:17:33.374Z,69.20
2022-12-09T08:19:35.532Z,69.30
2022-12-09T08:21:37.717Z,69.30
2022-12-09T08:23:40.272Z,69.30
2022-12-09T08:25:42.557Z,69.30
2022-12-09T08:27:44.846Z,69.30
2022-12-09T08:29:46.825Z,69.30
2022-12-09T08:31:49.077Z,69.20
2022-12-09T08:33:51.452Z,69.30
2022-12-09T08:35:53.544Z,69.30
2022-12-09T08:37:55.869Z,69.30
2022-12-09T08:39:57.810Z,69.40
2022-12-09T08:42:00.177Z,69.40
2022-12-09T08:44:02.887Z,69.20
2022-12-09T08:46:04.807Z,69.40
2022-12-09T08:48:07.880Z,69.10
2022-12-09T08:50:10.536Z,69.00
2022-12-09T08:52:12.980Z,68.80
2022-12-09T08:54:15.225Z,68.70
2022-12-09T08:56:17.579Z,68.50
2022-12-09T08:58:19.881Z,68.50
2022-12-09T09:00:21.764Z,68.70
2022-12-09T09:02:23.709Z,68.90
2022-12-09T09:04:26.197Z,69.00
2022-12-09T09:06:28.450Z,68.90
2022-12-09T09:08:32.178Z,68.90
2022-12-09T09:10:35.981Z,68.80
2022-12-09T09:12:43.296Z,68.90
2022-12-09T09:14:45.907Z,68.30
2022-12-09T09:16:48.251Z,68.40
2022-12-09T09:18:50.916Z,68.20
2022-12-09T09:20:53.819Z,68.20
2022-12-09T09:23:02.561Z,68.10
2022-12-09T09:25:05.633Z,68.20
2022-12-09T09:27:08.348Z,68.30
2022-12-09T09:29:14.406Z,68.50
2022-12-09T09:31:17.778Z,68.50
2022-12-09T09:33:20.139Z,68.20
2022-12-09T09:35:22.179Z,68.40
2022-12-09T09:37:25.976Z,68.40
2022-12-09T09:39:28.089Z,68.40
2022-12-09T09:41:36.384Z,68.20
2022-12-09T09:43:38.977Z,68.00
2022-12-09T09:45:41.061Z,68.10
2022-12-09T09:47:45.468Z,68.20
2022-12-09T09:49:47.732Z,68.10
2022-12-09T09:51:49.940Z,68.10
2022-12-09T09:53:53.440Z,68.00
2022-12-09T09:56:01.340Z,67.80
2022-12-09T09:58:18.054Z,67.80
2022-12-09T10:00:31.818Z,67.80
2022-12-09T10:02:36.987Z,68.00
2022-12-09T10:04:42.409Z,68.00
2022-12-09T10:06:44.700Z,68.00
2022-12-09T10:08:46.842Z,68.00
2022-12-09T10:11:08.085Z,67.80
2022-12-09T10:13:28.712Z,67.50
2022-12-09T10:15:35.174Z,67.50
2022-12-09T10:17:40.123Z,67.40
2022-12-09T10:19:44.513Z,67.50
2022-12-09T10:21:48.148Z,67.20
2022-12-09T10:23:50.872Z,67.20
2022-12-09T10:25:55.664Z,66.90
2022-12-09T10:28:18.133Z,66.70
2022-12-09T10:30:20.713Z,66.60
2022-12-09T10:32:25.587Z,66.40
2022-12-09T10:34:27.698Z,66.70
2022-12-09T10:36:35.448Z,66.80
2022-12-09T10:38:40.520Z,66.30
2022-12-09T10:40:45.974Z,66.30
2022-12-09T10:43:07.204Z,66.30
2022-12-09T10:45:10.085Z,66.50
2022-12-09T10:47:25.925Z,66.60
2022-12-09T10:49:28.732Z,66.50
2022-12-09T10:51:39.634Z,66.60
2022-12-09T10:54:03.809Z,66.40
2022-12-09T10:56:06.503Z,66.40
2022-12-09T10:58:11.795Z,66.20
2022-12-09T11:00:27.104Z,66.00
2022-12-09T11:02:32.759Z,66.00
2022-12-09T11:04:36.611Z,65.90
2022-12-09T11:06:40.738Z,66.00
2022-12-09T11:08:49.603Z,66.20
2022-12-09T11:10:51.972Z,66.10
2022-12-09T11:12:57.299Z,66.20
2022-12-09T11:15:01.346Z,66.30
2022-12-09T11:17:12.853Z,66.20
2022-12-09T11:19:15.117Z,65.60
2022-12-09T11:21:34.304Z,65.90
2022-12-09T11:23:36.923Z,66.10
2022-12-09T11:25:50.420Z,66.00
2022-12-09T11:27:52.427Z,66.00
2022-12-09T11:30:12.532Z,66.00
2022-12-09T11:32:16.045Z,66.20
2022-12-09T11:34:23.364Z,66.10
2022-12-09T11:36:32.660Z,65.90
2022-12-09T11:38:38.042Z,65.80
2022-12-09T11:40:39.874Z,66.60
2022-12-09T11:42:42.020Z,65.80
2022-12-09T11:44:59.065Z,66.00
2022-12-09T11:47:02.477Z,65.90
2022-12-09T11:49:06.762Z,65.20
2022-12-09T11:51:18.878Z,65.30
2022-12-09T11:53:25.787Z,65.30
2022-12-09T11:55:27.772Z,65.40
2022-12-09T11:57:43.019Z,65.70
2022-12-09T11:59:48.658Z,65.30
2022-12-09T12:01:54.263Z,65.70
2022-12-09T12:03:57.598Z,65.90
2022-12-09T12:06:00.859Z,65.90
2022-12-09T12:08:11.261Z,65.90
2022-12-09T12:10:17.771Z,65.90
2022-12-09T12:12:23.919Z,66.00
2022-12-09T12:14:29.250Z,65.60
2022-12-09T12:16:40.163Z,65.20
2022-12-09T12:18:59.718Z,65.50
2022-12-09T12:21:01.491Z,65.70
2022-12-09T12:23:26.483Z,66.00
2022-12-09T12:25:46.795Z,66.10
2022-12-09T12:27:51.283Z,65.80
2022-12-09T12:29:56.839Z,65.70
2022-12-09T12:32:07.797Z,65.30
2022-12-09T12:34:24.516Z,65.00
2022-12-09T12:36:34.052Z,65.00
2022-12-09T12:38:38.674Z,65.00
2022-12-09T12:40:50.305Z,65.00
2022-12-09T12:43:10.800Z,64.70
2022-12-09T12:45:33.886Z,64.80
2022-12-09T12:47:47.962Z,64.40
2022-12-09T12:50:01.939Z,64.10
2022-12-09T12:52:26.392Z,64.50
2022-12-09T12:54:52.794Z,64.60
2022-12-09T12:57:02.662Z,64.30
2022-12-09T12:59:12.428Z,64.20
2022-12-09T13:01:30.579Z,64.00
2022-12-09T13:03:36.839Z,64.20
2022-12-09T13:05:42.192Z,64.40
2022-12-09T13:08:01.524Z,64.50
2022-12-09T13:10:21.380Z,64.30
2022-12-09T13:12:45.207Z,64.60
2022-12-09T13:14:54.135Z,64.50
2022-12-09T13:16:56.052Z,64.50
2022-12-09T13:19:17.451Z,63.90
2022-12-09T13:21:19.770Z,64.10
2022-12-09T13:23:30.738Z,63.70
2022-12-09T13:25:51.777Z,64.00
2022-12-09T13:28:03.867Z,64.00
2022-12-09T13:30:14.600Z,64.00
2022-12-09T13:32:28.302Z,64.00
2022-12-09T13:34:36.521Z,63.70
2022-12-09T13:36:41.058Z,63.60
2022-12-09T13:38:43.323Z,63.60
2022-12-09T13:40:45.040Z,63.80
2022-12-09T13:42:53.080Z,63.50
2022-12-09T13:45:04.011Z,63.80
2022-12-09T13:47:16.178Z,63.80
2022-12-09T13:49:36.063Z,64.10
2022-12-09T13:51:44.776Z,64.40
2022-12-09T13:53:49.208Z,64.20
2022-12-09T13:55:56.115Z,64.40
2022-12-09T13:58:15.868Z,64.40
2022-12-09T14:00:18.497Z,64.40
2022-12-09T14:02:35.355Z,64.70
2022-12-09T14:04:43.172Z,64.60
2022-12-09T14:06:44.872Z,64.70
2022-12-09T14:08:50.361Z,64.60
2022-12-09T14:10:53.089Z,64.20
2022-12-09T14:12:54.895Z,64.00
2022-12-09T14:14:58.210Z,64.00
2022-12-09T14:17:16.019Z,63.70
2022-12-09T14:19:23.676Z,63.90
2022-12-09T14:21:27.554Z,64.10
2022-12-09T14:23:29.319Z,64.00
2022-12-09T14:25:33.669Z,64.50
2022-12-09T14:27:35.513Z,63.90
2022-12-09T14:29:56.194Z,64.10
2022-12-09T14:32:03.116Z,63.90
2022-12-09T14:34:17.278Z,63.40
2022-12-09T14:36:19.210Z,63.60
2022-12-09T14:38:20.880Z,64.00
2022-12-09T14:40:41.503Z,64.10
2022-12-09T14:42:43.284Z,63.80
2022-12-09T14:44:57.867Z,63.80
2022-12-09T14:47:13.957Z,63.80
2022-12-09T14:49:18.204Z,63.60
2022-12-09T14:51:23.016Z,63.90
2022-12-09T14:53:25.408Z,64.30
2022-12-09T14:55:27.981Z,64.30
2022-12-09T14:57:37.902Z,64.30
2022-12-09T14:59:46.619Z,64.30
2022-12-09T15:01:59.268Z,64.30
2022-12-09T15:04:01.248Z,64.40
2022-12-09T15:06:11.593Z,64.40
2022-12-09T15:08:26.614Z,64.50
2022-12-09T15:10:36.402Z,65.40
2022-12-09T15:12:39.414Z,64.10
2022-12-09T15:14:41.737Z,64.30
2022-12-09T15:16:47.746Z,64.30
2022-12-09T15:18:53.063Z,64.40
2022-12-09T15:20:56.622Z,64.30
2022-12-09T15:23:00.163Z,64.20
2022-12-09T15:25:03.048Z,64.30
2022-12-09T15:27:04.789Z,64.50
2022-12-09T15:29:06.780Z,64.60
2022-12-09T15:31:18.978Z,64.50
2022-12-09T15:33:20.835Z,64.50
2022-12-09T15:35:27.122Z,64.60
2022-12-09T15:37:28.896Z,64.50
2022-12-09T15:39:32.691Z,64.70
2022-12-09T15:42:07.463Z,65.60
2022-12-09T15:44:12.359Z,64.30
2022-12-09T15:46:14.271Z,64.40
2022-12-09T15:48:18.455Z,64.60
2022-12-09T15:50:24.424Z,64.50
2022-12-09T15:52:29.515Z,64.70
2022-12-09T15:54:34.249Z,64.40
2022-12-09T15:56:39.324Z,64.50
2022-12-09T15:58:43.352Z,64.70
2022-12-09T16:00:48.713Z,64.80
2022-12-09T16:02:50.851Z,64.70
2022-12-09T16:04:55.039Z,64.80
2022-12-09T16:06:57.008Z,64.70
2022-12-09T16:08:59.372Z,64.70
2022-12-09T16:11:01.352Z,64.70
2022-12-09T16:13:13.354Z,64.80
2022-12-09T16:15:35.039Z,64.80
2022-12-09T16:17:56.980Z,64.70
2022-12-09T16:19:59.005Z,64.90
2022-12-09T16:22:19.297Z,65.00
2022-12-09T16:24:21.250Z,65.00
2022-12-09T16:26:30.589Z,65.10
2022-12-09T16:28:32.449Z,65.10
2022-12-09T16:30:44.242Z,65.10
2022-12-09T16:32:53.423Z,65.20
2022-12-09T16:34:57.163Z,65.10
2022-12-09T16:36:58.975Z,65.10
2022-12-09T16:39:23.768Z,65.20
2022-12-09T16:41:45.442Z,65.20
2022-12-09T16:43:54.511Z,65.10
2022-12-09T16:45:56.326Z,65.10
2022-12-09T16:47:59.058Z,65.20
2022-12-09T16:50:00.768Z,65.00
2022-12-09T16:52:02.531Z,64.90
2022-12-09T16:54:06.149Z,65.00
2022-12-09T16:56:16.829Z,65.20
2022-12-09T16:58:18.516Z,65.20
2022-12-09T17:00:20.766Z,65.20
2022-12-09T17:02:27.219Z,65.10
2022-12-09T17:04:29.082Z,65.20
2022-12-09T17:06:31.374Z,65.30
2022-12-09T17:08:33.220Z,65.10
2022-12-09T17:10:34.858Z,65.00
2022-12-09T17:12:36.564Z,65.00
2022-12-09T17:14:38.505Z,64.60
2022-12-09T17:16:40.267Z,64.60
2022-12-09T17:18:42.038Z,64.70
2022-12-09T17:20:43.723Z,64.80
2022-12-09T17:22:45.558Z,64.90
2022-12-09T17:24:47.227Z,65.10
2022-12-09T17:26:48.928Z,65.20
2022-12-09T17:28:50.993Z,65.20
2022-12-09T17:30:52.744Z,65.30
2022-12-09T17:32:54.732Z,65.20
2022-12-09T17:34:56.516Z,65.30
2022-12-09T17:36:58.440Z,65.30
2022-12-09T17:39:01.320Z,65.20
2022-12-09T17:41:04.651Z,65.30
2022-12-09T17:43:06.322Z,65.20
2022-12-09T17:45:08.486Z,65.30
2022-12-09T17:47:10.446Z,65.30
2022-12-09T17:49:12.495Z,65.30
2022-12-09T17:51:16.468Z,65.30
2022-12-09T17:53:18.171Z,65.30
2022-12-09T17:55:19.893Z,65.30
2022-12-09T17:57:21.574Z,65.20
2022-12-09T17:59:23.363Z,65.10
2022-12-09T18:01:25.471Z,65.10
2022-12-09T18:03:54.393Z,65.00
2022-12-09T18:05:49.936Z,65.10
2022-12-09T18:07:52.798Z,65.00
2022-12-09T18:09:54.865Z,64.60
2022-12-09T18:11:56.601Z,64.60
2022-12-09T18:13:58.367Z,64.90
2022-12-09T18:16:00.356Z,65.00
2022-12-09T18:18:02.036Z,65.10
2022-12-09T18:20:04.168Z,65.10
2022-12-09T18:22:05.955Z,65.00
2022-12-09T18:24:07.859Z,64.90
2022-12-09T18:26:10.719Z,65.10
2022-12-09T18:28:12.448Z,65.20
2022-12-09T18:30:14.315Z,65.30
2022-12-09T18:32:15.958Z,65.10
2022-12-09T18:34:17.642Z,65.00
2022-12-09T18:36:21.092Z,64.80
2022-12-09T18:38:22.822Z,65.00
2022-12-09T18:40:24.905Z,65.10
2022-12-09T18:42:26.640Z,66.10
2022-12-09T18:44:28.366Z,65.20
2022-12-09T18:46:32.123Z,65.30
2022-12-09T18:48:34.191Z,65.30
2022-12-09T18:50:36.748Z,65.30
2022-12-09T18:52:39.119Z,65.30
2022-12-09T18:54:40.898Z,65.30
2022-12-09T18:56:42.680Z,65.40
2022-12-09T18:59:05.497Z,65.30
2022-12-09T19:01:20.788Z,65.10
2022-12-09T19:03:22.842Z,65.00
2022-12-09T19:05:26.275Z,65.00
2022-12-09T19:07:32.332Z,65.00
2022-12-09T19:09:34.879Z,65.10
2022-12-09T19:11:38.224Z,65.10
2022-12-09T19:13:39.874Z,65.00
2022-12-09T19:15:41.591Z,64.90
2022-12-09T19:17:43.527Z,64.70
2022-12-09T19:19:47.201Z,64.80
2022-12-09T19:21:49.027Z,65.00
2022-12-09T19:23:50.858Z,64.90
2022-12-09T19:25:52.533Z,65.00
2022-12-09T19:27:54.170Z,65.10
2022-12-09T19:29:55.852Z,65.10
2022-12-09T19:31:57.544Z,65.10
2022-12-09T19:34:00.560Z,64.90
2022-12-09T19:36:05.653Z,65.00
2022-12-09T19:38:07.398Z,65.00
2022-12-09T19:40:09.920Z,64.90
2022-12-09T19:42:12.012Z,65.00
2022-12-09T19:44:21.520Z,65.10
2022-12-09T19:46:33.866Z,65.10
2022-12-09T19:48:36.697Z,65.10
2022-12-09T19:50:38.510Z,64.80
2022-12-09T19:52:40.287Z,64.90
2022-12-09T19:54:42.182Z,64.90
2022-12-09T19:56:44.354Z,65.70
2022-12-09T19:58:46.772Z,64.70
2022-12-09T20:00:48.937Z,65.00
2022-12-09T20:02:50.976Z,65.00
2022-12-09T20:04:52.727Z,65.00
2022-12-09T20:06:54.426Z,64.80
2022-12-09T20:08:56.135Z,64.70
2022-12-09T20:10:57.792Z,64.80
2022-12-09T20:12:59.726Z,64.90
2022-12-09T20:15:01.452Z,64.90
2022-12-09T20:17:03.227Z,64.90
2022-12-09T20:19:05.310Z,65.00
2022-12-09T20:21:08.364Z,65.10
2022-12-09T20:23:10.211Z,65.20
2022-12-09T20:25:11.877Z,65.10
2022-12-09T20:27:13.588Z,65.10
2022-12-09T20:29:15.353Z,65.20
2022-12-09T20:31:18.967Z,65.20
2022-12-09T20:33:20.776Z,65.10
2022-12-09T20:35:22.703Z,65.10
2022-12-09T20:37:24.443Z,65.10
2022-12-09T20:39:26.346Z,65.10
2022-12-09T20:41:28.369Z,65.30
2022-12-09T20:43:30.575Z,65.20
2022-12-09T20:45:32.404Z,65.20
2022-12-09T20:47:34.139Z,65.20
2022-12-09T20:49:35.823Z,65.40
2022-12-09T20:51:38.578Z,65.50
2022-12-09T20:53:41.974Z,65.40
2022-12-09T20:55:43.704Z,65.20
2022-12-09T20:57:45.511Z,65.40
2022-12-09T20:59:47.275Z,65.40
2022-12-09T21:01:48.961Z,65.40
2022-12-09T21:03:51.194Z,65.40
2022-12-09T21:05:56.667Z,65.50
2022-12-09T21:07:58.438Z,65.50
2022-12-09T21:10:00.231Z,66.30
2022-12-09T21:12:02.155Z,65.50
2022-12-09T21:14:05.017Z,65.50
2022-12-09T21:16:08.387Z,65.50
2022-12-09T21:18:10.088Z,65.60
2022-12-09T21:20:13.109Z,65.60
2022-12-09T21:22:14.894Z,65.60
2022-12-09T21:24:17.743Z,65.60
2022-12-09T21:26:20.048Z,65.60
2022-12-09T21:28:21.771Z,65.60
2022-12-09T21:30:27.278Z,65.60
2022-12-09T21:32:28.990Z,65.60
2022-12-09T21:34:30.805Z,65.60
2022-12-09T21:36:37.385Z,65.50
2022-12-09T21:38:39.352Z,65.50
2022-12-09T21:40:41.100Z,65.50
2022-12-09T21:42:42.780Z,65.40
2022-12-09T21:44:44.480Z,65.40
2022-12-09T21:46:46.394Z,65.40
2022-12-09T21:48:52.052Z,65.40
2022-12-09T21:50:54.959Z,65.40
2022-12-09T21:52:56.669Z,65.40
2022-12-09T21:54:59.961Z,65.40
2022-12-09T21:57:01.681Z,65.40
2022-12-09T21:59:05.518Z,65.40
2022-12-09T22:01:08.522Z,65.50
2022-12-09T22:03:10.337Z,65.50
2022-12-09T22:05:12.091Z,65.60
2022-12-09T22:07:13.850Z,65.60
2022-12-09T22:09:16.243Z,65.70
2022-12-09T22:11:19.814Z,65.60
2022-12-09T22:13:22.657Z,65.60
2022-12-09T22:15:24.340Z,65.60
2022-12-09T22:17:26.306Z,65.60
2022-12-09T22:19:28.112Z,65.50
2022-12-09T22:21:30.985Z,65.60
2022-12-09T22:23:33.355Z,65.60
2022-12-09T22:25:37.224Z,65.50
2022-12-09T22:27:41.291Z,65.50
2022-12-09T22:29:42.979Z,65.60
2022-12-09T22:31:44.746Z,65.60
2022-12-09T22:33:46.931Z,65.70
2022-12-09T22:35:48.630Z,65.70
2022-12-09T22:37:50.401Z,65.60
2022-12-09T22:39:52.275Z,65.70
2022-12-09T22:41:54.651Z,65.60
2022-12-09T22:43:56.797Z,65.70
2022-12-09T22:46:09.127Z,65.60
2022-12-09T22:48:10.847Z,65.60
2022-12-09T22:50:13.026Z,65.70
2022-12-09T22:52:14.784Z,65.70
2022-12-09T22:54:17.033Z,65.80
2022-12-09T22:56:19.219Z,65.80
2022-12-09T22:58:20.867Z,65.70
2022-12-09T23:00:22.874Z,65.80
2022-12-09T23:02:24.775Z,65.70
2022-12-09T23:04:26.627Z,65.70
2022-12-09T23:06:28.945Z,65.80
2022-12-09T23:08:30.744Z,65.80
2022-12-09T23:10:32.848Z,65.80
2022-12-09T23:12:34.560Z,66.40
2022-12-09T23:14:36.254Z,65.60
2022-12-09T23:16:41.009Z,65.70
2022-12-09T23:18:42.810Z,65.70
2022-12-09T23:20:44.476Z,65.80
2022-12-09T23:22:46.290Z,65.70
2022-12-09T23:24:48.606Z,65.70
2022-12-09T23:26:50.310Z,65.70
2022-12-09T23:28:52.614Z,65.90
2022-12-09T23:30:54.281Z,66.00
2022-12-09T23:32:56.044Z,66.00
2022-12-09T23:34:57.701Z,66.80
2022-12-09T23:36:59.408Z,65.90
2022-12-09T23:39:01.647Z,65.90
2022-12-09T23:41:04.194Z,66.00
2022-12-09T23:43:05.908Z,66.00
2022-12-09T23:45:07.828Z,66.00
2022-12-09T23:47:09.527Z,66.10
2022-12-09T23:49:11.327Z,66.10
2022-12-09T23:51:17.101Z,66.10
2022-12-09T23:53:18.769Z,66.00
2022-12-09T23:55:20.502Z,65.80
2022-12-09T23:57:22.178Z,66.00
2022-12-09T23:59:23.959Z,65.90
